createdAt,value
2023-12-02T00:00:01.872Z,93279.00
2023-12-02T00:01:01.789Z,93277.00
2023-12-02T00:02:01.734Z,93276.00
2023-12-02T00:03:01.588Z,93276.00
2023-12-02T00:04:02.472Z,93275.00
2023-12-02T00:05:01.419Z,93275.00
2023-12-02T00:06:01.406Z,93275.00
2023-12-02T00:07:01.232Z,93271.00
2023-12-02T00:08:01.173Z,93270.00
2023-12-02T00:09:01.965Z,93269.00
2023-12-02T00:10:00.970Z,93269.00
2023-12-02T00:11:01.890Z,93271.00
2023-12-02T00:12:00.947Z,93270.00
2023-12-02T00:13:00.796Z,93271.00
2023-12-02T00:14:00.696Z,93271.00
2023-12-02T00:15:00.760Z,93268.00
2023-12-02T00:16:00.526Z,93269.00
2023-12-02T00:17:00.435Z,93270.00
2023-12-02T00:18:00.559Z,93270.00
2023-12-02T00:19:00.476Z,93273.00
2023-12-02T00:20:00.875Z,93272.00
2023-12-02T00:21:00.210Z,93272.00
2023-12-02T00:22:00.044Z,93272.00
2023-12-02T00:22:59.992Z,93269.00
2023-12-02T00:23:59.990Z,93269.00
2023-12-02T00:24:59.903Z,93265.00
2023-12-02T00:25:59.788Z,93267.00
2023-12-02T00:26:59.765Z,93263.00
2023-12-02T00:28:00.424Z,93264.00
2023-12-02T00:29:00.929Z,93265.00
2023-12-02T00:29:59.503Z,93262.00
2023-12-02T00:30:59.365Z,93262.00
2023-12-02T00:31:59.284Z,93263.00
2023-12-02T00:32:59.224Z,93264.00
2023-12-02T00:33:59.227Z,93264.00
2023-12-02T00:34:59.056Z,93266.00
2023-12-02T00:35:58.981Z,93266.00
2023-12-02T00:36:58.889Z,93272.00
2023-12-02T00:37:58.821Z,93274.00
2023-12-02T00:38:59.442Z,93275.00
2023-12-02T00:39:58.925Z,93276.00
2023-12-02T00:40:58.781Z,93281.00
2023-12-02T00:41:58.741Z,93278.00
2023-12-02T00:42:58.594Z,93279.00
2023-12-02T00:43:58.599Z,93281.00
2023-12-02T00:44:58.477Z,93282.00
2023-12-02T00:45:58.383Z,93284.00
2023-12-02T00:46:58.882Z,93286.00
2023-12-02T00:47:58.238Z,93286.00
2023-12-02T00:48:58.250Z,93285.00
2023-12-02T00:49:58.035Z,93283.00
2023-12-02T00:50:58.038Z,93281.00
2023-12-02T00:51:57.938Z,93278.00
2023-12-02T00:52:57.838Z,93278.00
2023-12-02T00:53:57.818Z,93277.00
2023-12-02T00:54:57.665Z,93277.00
2023-12-02T00:55:57.641Z,93276.00
2023-12-02T00:56:57.521Z,93277.00
2023-12-02T00:57:57.459Z,93276.00
2023-12-02T00:58:57.886Z,93273.00
2023-12-02T00:59:57.312Z,93277.00
2023-12-02T01:00:57.937Z,93279.00
2023-12-02T01:01:57.215Z,93280.00
2023-12-02T01:02:57.105Z,93282.00
2023-12-02T01:03:57.000Z,93282.00
2023-12-02T01:04:57.523Z,93281.00
2023-12-02T01:05:56.888Z,93280.00
2023-12-02T01:06:56.763Z,93282.00
2023-12-02T01:07:56.585Z,93279.00
2023-12-02T01:08:56.632Z,93282.00
2023-12-02T01:09:56.486Z,93281.00
2023-12-02T01:10:56.407Z,93280.00
2023-12-02T01:11:56.331Z,93281.00
2023-12-02T01:12:56.180Z,93284.00
2023-12-02T01:13:56.171Z,93282.00
2023-12-02T01:14:56.347Z,93284.00
2023-12-02T01:15:56.955Z,93283.00
2023-12-02T01:16:55.925Z,93284.00
2023-12-02T01:17:56.484Z,93281.00
2023-12-02T01:18:55.885Z,93280.00
2023-12-02T01:19:56.474Z,93280.00
2023-12-02T01:20:56.457Z,93280.00
2023-12-02T01:21:55.552Z,93284.00
2023-12-02T01:22:55.458Z,93286.00
2023-12-02T01:23:55.379Z,93285.00
2023-12-02T01:24:55.208Z,93287.00
2023-12-02T01:25:55.166Z,93288.00
2023-12-02T01:26:55.120Z,93289.00
2023-12-02T01:27:55.909Z,93293.00
2023-12-02T01:28:54.918Z,93294.00
2023-12-02T01:29:54.910Z,93296.00
2023-12-02T01:30:54.722Z,93298.00
2023-12-02T01:31:54.718Z,93295.00
2023-12-02T01:32:54.700Z,93296.00
2023-12-02T01:33:54.601Z,93295.00
2023-12-02T01:34:54.572Z,93294.00
2023-12-02T01:35:54.500Z,93292.00
2023-12-02T01:36:54.298Z,93290.00
2023-12-02T01:37:54.887Z,93287.00
2023-12-02T01:38:54.229Z,93283.00
2023-12-02T01:39:54.131Z,93282.00
2023-12-02T01:40:53.978Z,93283.00
2023-12-02T01:41:54.496Z,93283.00
2023-12-02T01:42:53.790Z,93287.00
2023-12-02T01:43:53.669Z,93288.00
2023-12-02T01:44:54.405Z,93288.00
2023-12-02T01:45:53.562Z,93290.00
2023-12-02T01:46:54.401Z,93289.00
2023-12-02T01:47:53.558Z,93289.00
2023-12-02T01:48:53.421Z,93284.00
2023-12-02T01:49:53.311Z,93282.00
2023-12-02T01:50:53.384Z,93284.00
2023-12-02T01:51:53.134Z,93283.00
2023-12-02T01:52:53.966Z,93281.00
2023-12-02T01:53:53.989Z,93278.00
2023-12-02T01:54:52.893Z,93275.00
2023-12-02T01:55:53.498Z,93272.00
2023-12-02T01:56:52.897Z,93272.00
2023-12-02T01:57:52.623Z,93270.00
2023-12-02T01:58:53.461Z,93270.00
2023-12-02T01:59:52.485Z,93274.00
2023-12-02T02:00:52.404Z,93274.00
2023-12-02T02:01:52.376Z,93275.00
2023-12-02T02:02:52.272Z,93272.00
2023-12-02T02:03:52.942Z,93278.00
2023-12-02T02:04:52.143Z,93274.00
2023-12-02T02:05:52.045Z,93274.00
2023-12-02T02:06:51.932Z,93275.00
2023-12-02T02:07:51.790Z,93273.00
2023-12-02T02:08:51.786Z,93277.00
2023-12-02T02:09:52.431Z,93276.00
2023-12-02T02:10:51.750Z,93275.00
2023-12-02T02:11:51.654Z,93278.00
2023-12-02T02:12:51.583Z,93276.00
2023-12-02T02:13:51.476Z,93281.00
2023-12-02T02:14:51.422Z,93284.00
2023-12-02T02:15:51.346Z,93287.00
2023-12-02T02:16:51.248Z,93286.00
2023-12-02T02:17:51.207Z,93286.00
2023-12-02T02:18:51.253Z,93284.00
2023-12-02T02:19:51.034Z,93283.00
2023-12-02T02:20:50.864Z,93283.00
2023-12-02T02:21:51.529Z,93283.00
2023-12-02T02:22:50.993Z,93284.00
2023-12-02T02:23:50.873Z,93285.00
2023-12-02T02:24:50.759Z,93288.00
2023-12-02T02:25:50.762Z,93285.00
2023-12-02T02:26:50.743Z,93282.00
2023-12-02T02:27:50.638Z,93280.00
2023-12-02T02:28:50.607Z,93280.00
2023-12-02T02:29:50.904Z,93281.00
2023-12-02T02:30:50.422Z,93280.00
2023-12-02T02:31:50.309Z,93277.00
2023-12-02T02:32:50.322Z,93279.00
2023-12-02T02:33:50.239Z,93276.00
2023-12-02T02:34:50.012Z,93279.00
2023-12-02T02:35:50.102Z,93284.00
2023-12-02T02:36:50.441Z,93289.00
2023-12-02T02:37:50.495Z,93292.00
2023-12-02T02:38:49.916Z,93291.00
2023-12-02T02:39:49.809Z,93294.00
2023-12-02T02:40:50.434Z,93295.00
2023-12-02T02:41:49.625Z,93292.00
2023-12-02T02:42:49.534Z,93291.00
2023-12-02T02:43:49.468Z,93286.00
2023-12-02T02:44:49.387Z,93282.00
2023-12-02T02:45:49.297Z,93280.00
2023-12-02T02:46:49.959Z,93277.00
2023-12-02T02:47:49.398Z,93276.00
2023-12-02T02:48:49.447Z,93272.00
2023-12-02T02:49:49.873Z,93275.00
2023-12-02T02:50:49.187Z,93272.00
2023-12-02T02:51:49.121Z,93270.00
2023-12-02T02:52:49.934Z,93267.00
2023-12-02T02:53:48.933Z,93262.00
2023-12-02T02:54:48.836Z,93259.00
2023-12-02T02:55:48.723Z,93260.00
2023-12-02T02:56:48.732Z,93258.00
2023-12-02T02:57:48.641Z,93256.00
2023-12-02T02:58:48.478Z,93254.00
2023-12-02T02:59:48.502Z,93249.00
2023-12-02T03:00:48.364Z,93246.00
2023-12-02T03:01:48.337Z,93243.00
2023-12-02T03:02:48.979Z,93245.00
2023-12-02T03:03:48.149Z,93247.00
2023-12-02T03:04:48.059Z,93251.00
2023-12-02T03:05:48.002Z,93256.00
2023-12-02T03:06:48.028Z,93258.00
2023-12-02T03:07:47.779Z,93264.00
2023-12-02T03:08:47.688Z,93262.00
2023-12-02T03:09:47.700Z,93260.00
2023-12-02T03:10:47.656Z,93254.00
2023-12-02T03:11:49.562Z,93249.00
2023-12-02T03:12:47.505Z,93246.00
2023-12-02T03:13:48.535Z,93250.00
2023-12-02T03:14:48.790Z,93255.00
2023-12-02T03:15:47.323Z,93261.00
2023-12-02T03:16:47.287Z,93267.00
2023-12-02T03:17:47.186Z,93268.00
2023-12-02T03:18:47.178Z,93266.00
2023-12-02T03:19:47.101Z,93262.00
2023-12-02T03:20:47.018Z,93259.00
2023-12-02T03:21:46.955Z,93260.00
2023-12-02T03:22:46.879Z,93260.00
2023-12-02T03:23:46.767Z,93261.00
2023-12-02T03:24:46.705Z,93260.00
2023-12-02T03:25:46.595Z,93262.00
2023-12-02T03:26:47.418Z,93264.00
2023-12-02T03:27:46.478Z,93266.00
2023-12-02T03:28:46.440Z,93265.00
2023-12-02T03:29:46.961Z,93262.00
2023-12-02T03:30:46.212Z,93262.00
2023-12-02T03:31:46.149Z,93258.00
2023-12-02T03:32:46.078Z,93254.00
2023-12-02T03:33:46.051Z,93250.00
2023-12-02T03:34:45.968Z,93246.00
2023-12-02T03:35:45.823Z,93242.00
2023-12-02T03:36:45.780Z,93242.00
2023-12-02T03:37:45.730Z,93241.00
2023-12-02T03:38:46.448Z,93242.00
2023-12-02T03:39:45.568Z,93243.00
2023-12-02T03:40:45.552Z,93244.00
2023-12-02T03:41:45.445Z,93250.00
2023-12-02T03:42:45.388Z,93257.00
2023-12-02T03:43:54.907Z,93260.00
2023-12-02T03:44:46.295Z,93264.00
2023-12-02T03:45:45.268Z,93268.00
2023-12-02T03:46:45.277Z,93272.00
2023-12-02T03:47:45.223Z,93275.00
2023-12-02T03:48:45.179Z,93277.00
2023-12-02T03:49:45.119Z,93272.00
2023-12-02T03:50:45.000Z,93270.00
2023-12-02T03:51:44.985Z,93268.00
2023-12-02T03:52:45.482Z,93269.00
2023-12-02T03:53:44.873Z,93270.00
2023-12-02T03:54:44.798Z,93272.00
2023-12-02T03:55:45.475Z,93272.00
2023-12-02T03:56:44.704Z,93273.00
2023-12-02T03:57:44.643Z,93276.00
2023-12-02T03:58:44.563Z,93276.00
2023-12-02T03:59:45.448Z,93277.00
2023-12-02T04:00:45.458Z,93282.00
2023-12-02T04:01:44.393Z,93287.00
2023-12-02T04:02:44.340Z,93293.00
2023-12-02T04:03:44.286Z,93293.00
2023-12-02T04:04:44.326Z,93295.00
2023-12-02T04:05:44.128Z,93294.00
2023-12-02T04:06:45.093Z,93298.00
2023-12-02T04:07:44.972Z,93303.00
2023-12-02T04:08:44.035Z,93310.00
2023-12-02T04:10:07.320Z,93312.00
2023-12-02T04:10:44.432Z,93310.00
2023-12-02T04:11:44.065Z,93303.00
2023-12-02T04:12:43.946Z,93291.00
2023-12-02T04:13:43.915Z,93280.00
2023-12-02T04:14:43.786Z,93275.00
2023-12-02T04:15:43.780Z,93269.00
2023-12-02T04:16:43.797Z,93259.00
2023-12-02T04:17:43.737Z,93251.00
2023-12-02T04:18:43.709Z,93244.00
2023-12-02T04:19:43.527Z,93241.00
2023-12-02T04:20:43.534Z,93239.00
2023-12-02T04:21:43.430Z,93237.00
2023-12-02T04:22:43.992Z,93236.00
2023-12-02T04:23:43.538Z,93239.00
2023-12-02T04:24:43.397Z,93242.00
2023-12-02T04:25:43.395Z,93235.00
2023-12-02T04:26:43.968Z,93226.00
2023-12-02T04:27:43.304Z,93217.00
2023-12-02T04:28:43.344Z,93214.00
2023-12-02T04:29:43.275Z,93217.00
2023-12-02T04:30:43.209Z,93225.00
2023-12-02T04:31:43.145Z,93238.00
2023-12-02T04:32:43.059Z,93250.00
2023-12-02T04:33:43.101Z,93261.00
2023-12-02T04:34:43.563Z,93266.00
2023-12-02T04:35:42.805Z,93271.00
2023-12-02T04:36:43.501Z,93275.00
2023-12-02T04:37:42.749Z,93278.00
2023-12-02T04:38:42.735Z,93285.00
2023-12-02T04:39:42.667Z,93294.00
2023-12-02T04:40:42.478Z,93301.00
2023-12-02T04:41:42.434Z,93303.00
2023-12-02T04:42:42.383Z,93304.00
2023-12-02T04:43:42.299Z,93305.00
2023-12-02T04:44:42.435Z,93304.00
2023-12-02T04:45:42.276Z,93306.00
2023-12-02T04:46:42.239Z,93311.00
2023-12-02T04:47:43.002Z,93314.00
2023-12-02T04:48:42.160Z,93318.00
2023-12-02T04:49:42.028Z,93315.00
2023-12-02T04:50:41.877Z,93317.00
2023-12-02T04:51:42.541Z,93318.00
2023-12-02T04:52:41.807Z,93320.00
2023-12-02T04:53:41.719Z,93317.00
2023-12-02T04:54:41.681Z,93312.00
2023-12-02T04:55:41.556Z,93310.00
2023-12-02T04:56:41.445Z,93312.00
2023-12-02T04:57:41.374Z,93311.00
2023-12-02T04:59:07.888Z,93310.00
2023-12-02T04:59:41.402Z,93309.00
2023-12-02T05:00:41.301Z,93307.00
2023-12-02T05:01:41.260Z,93309.00
2023-12-02T05:02:42.036Z,93306.00
2023-12-02T05:03:41.142Z,93310.00
2023-12-02T05:04:41.024Z,93311.00
2023-12-02T05:05:40.927Z,93307.00
2023-12-02T05:06:41.564Z,93304.00
2023-12-02T05:07:41.046Z,93297.00
2023-12-02T05:08:41.502Z,93294.00
2023-12-02T05:09:40.929Z,93292.00
2023-12-02T05:10:40.875Z,93294.00
2023-12-02T05:11:40.783Z,93294.00
2023-12-02T05:12:40.769Z,93294.00
2023-12-02T05:13:42.561Z,93293.00
2023-12-02T05:14:40.591Z,93293.00
2023-12-02T05:15:43.544Z,93292.00
2023-12-02T05:16:40.443Z,93292.00
2023-12-02T05:17:40.493Z,93292.00
2023-12-02T05:18:40.486Z,93294.00
2023-12-02T05:19:40.385Z,93296.00
2023-12-02T05:20:40.310Z,93299.00
2023-12-02T05:21:40.228Z,93302.00
2023-12-02T05:22:41.043Z,93304.00
2023-12-02T05:23:53.828Z,93306.00
2023-12-02T05:24:53.791Z,93306.00
2023-12-02T05:25:53.778Z,93308.00
2023-12-02T05:26:53.607Z,93307.00
2023-12-02T05:27:53.599Z,93307.00
2023-12-02T05:28:53.606Z,93310.00
2023-12-02T05:29:53.838Z,93315.00
2023-12-02T05:30:53.528Z,93320.00
2023-12-02T05:31:54.449Z,93327.00
2023-12-02T05:32:53.546Z,93332.00
2023-12-02T05:33:54.575Z,93340.00
2023-12-02T05:34:53.618Z,93348.00
2023-12-02T05:35:53.556Z,93353.00
2023-12-02T05:36:53.551Z,93360.00
2023-12-02T05:37:54.527Z,93359.00
2023-12-02T05:38:53.544Z,93361.00
2023-12-02T05:39:53.471Z,93363.00
2023-12-02T05:40:54.490Z,93367.00
2023-12-02T05:41:53.486Z,93376.00
2023-12-02T05:42:53.428Z,93378.00
2023-12-02T05:43:53.959Z,93383.00
2023-12-02T05:44:53.513Z,93381.00
2023-12-02T05:45:55.184Z,93376.00
2023-12-02T05:46:53.515Z,93376.00
2023-12-02T05:47:53.530Z,93376.00
2023-12-02T05:48:53.571Z,93378.00
2023-12-02T05:49:53.419Z,93379.00
2023-12-02T05:50:53.364Z,93377.00
2023-12-02T05:51:53.465Z,93379.00
2023-12-02T05:52:53.954Z,93371.00
2023-12-02T05:53:53.268Z,93372.00
2023-12-02T05:54:53.318Z,93374.00
2023-12-02T05:55:53.209Z,93376.00
2023-12-02T05:56:53.203Z,93374.00
2023-12-02T05:57:53.214Z,93374.00
2023-12-02T05:58:53.190Z,93376.00
2023-12-02T05:59:53.235Z,93377.00
2023-12-02T06:00:53.204Z,93376.00
2023-12-02T06:01:53.267Z,93374.00
2023-12-02T06:02:53.244Z,93376.00
2023-12-02T06:03:53.321Z,93377.00
2023-12-02T06:04:53.192Z,93381.00
2023-12-02T06:05:53.051Z,93385.00
2023-12-02T06:06:53.209Z,93389.00
2023-12-02T06:07:53.061Z,93395.00
2023-12-02T06:08:53.075Z,93395.00
2023-12-02T06:09:53.138Z,93397.00
2023-12-02T06:10:53.146Z,93400.00
2023-12-02T06:11:53.034Z,93404.00
2023-12-02T06:12:53.025Z,93407.00
2023-12-02T06:13:53.070Z,93408.00
2023-12-02T06:14:53.023Z,93409.00
2023-12-02T06:15:52.978Z,93415.00
2023-12-02T06:16:53.509Z,93415.00
2023-12-02T06:17:52.985Z,93419.00
2023-12-02T06:18:53.117Z,93418.00
2023-12-02T06:19:52.958Z,93418.00
2023-12-02T06:20:53.475Z,93421.00
2023-12-02T06:21:52.870Z,93425.00
2023-12-02T06:22:52.824Z,93428.00
2023-12-02T06:23:52.889Z,93430.00
2023-12-02T06:24:52.849Z,93433.00
2023-12-02T06:25:52.773Z,93436.00
2023-12-02T06:26:52.702Z,93441.00
2023-12-02T06:27:52.719Z,93443.00
2023-12-02T06:28:52.704Z,93449.00
2023-12-02T06:29:52.705Z,93452.00
2023-12-02T06:30:52.666Z,93455.00
2023-12-02T06:31:52.613Z,93454.00
2023-12-02T06:32:52.603Z,93455.00
2023-12-02T06:33:52.581Z,93457.00
2023-12-02T06:34:52.606Z,93460.00
2023-12-02T06:35:52.433Z,93464.00
2023-12-02T06:36:52.451Z,93468.00
2023-12-02T06:37:53.014Z,93468.00
2023-12-02T06:38:52.363Z,93468.00
2023-12-02T06:39:52.372Z,93468.00
2023-12-02T06:40:52.415Z,93468.00
2023-12-02T06:41:52.330Z,93470.00
2023-12-02T06:42:52.349Z,93469.00
2023-12-02T06:43:52.333Z,93470.00
2023-12-02T06:44:52.200Z,93473.00
2023-12-02T06:45:53.860Z,93477.00
2023-12-02T06:46:52.115Z,93475.00
2023-12-02T06:47:52.124Z,93477.00
2023-12-02T06:48:52.244Z,93479.00
2023-12-02T06:49:52.079Z,93477.00
2023-12-02T06:50:52.036Z,93474.00
2023-12-02T06:51:52.070Z,93477.00
2023-12-02T06:52:52.015Z,93478.00
2023-12-02T06:53:51.947Z,93477.00
2023-12-02T06:55:51.880Z,93479.00
2023-12-02T06:56:51.876Z,93477.00
2023-12-02T06:57:51.775Z,93477.00
2023-12-02T06:58:51.907Z,93477.00
2023-12-02T06:59:52.463Z,93477.00
2023-12-02T07:00:51.726Z,93477.00
2023-12-02T07:01:51.686Z,93472.00
2023-12-02T07:02:51.986Z,93472.00
2023-12-02T07:03:51.619Z,93470.00
2023-12-02T07:04:51.616Z,93466.00
2023-12-02T07:05:51.652Z,93468.00
2023-12-02T07:06:51.491Z,93469.00
2023-12-02T07:07:51.479Z,93470.00
2023-12-02T07:08:51.970Z,93469.00
2023-12-02T07:09:51.981Z,93471.00
2023-12-02T07:10:51.472Z,93473.00
2023-12-02T07:11:51.372Z,93472.00
2023-12-02T07:12:51.465Z,93475.00
2023-12-02T07:13:51.355Z,93474.00
2023-12-02T07:14:51.967Z,93473.00
2023-12-02T07:15:51.277Z,93474.00
2023-12-02T07:16:51.223Z,93474.00
2023-12-02T07:17:51.235Z,93478.00
2023-12-02T07:18:51.258Z,93480.00
2023-12-02T07:19:51.219Z,93482.00
2023-12-02T07:20:51.120Z,93484.00
2023-12-02T07:21:52.020Z,93486.00
2023-12-02T07:22:51.226Z,93492.00
2023-12-02T07:23:51.081Z,93490.00
2023-12-02T07:24:51.062Z,93493.00
2023-12-02T07:25:51.056Z,93496.00
2023-12-02T07:26:51.021Z,93500.00
2023-12-02T07:27:51.076Z,93502.00
2023-12-02T07:28:50.951Z,93504.00
2023-12-02T07:30:51.565Z,93508.00
2023-12-02T07:31:50.878Z,93508.00
2023-12-02T07:32:50.806Z,93510.00
2023-12-02T07:33:50.813Z,93515.00
2023-12-02T07:34:50.856Z,93518.00
2023-12-02T07:35:51.539Z,93521.00
2023-12-02T07:36:50.716Z,93524.00
2023-12-02T07:37:50.702Z,93525.00
2023-12-02T07:38:50.619Z,93526.00
2023-12-02T07:39:50.652Z,93530.00
2023-12-02T07:40:50.641Z,93531.00
2023-12-02T07:41:50.576Z,93527.00
2023-12-02T07:42:51.208Z,93523.00
2023-12-02T07:43:50.567Z,93521.00
2023-12-02T07:44:50.659Z,93518.00
2023-12-02T07:45:50.502Z,93513.00
2023-12-02T07:46:50.420Z,93512.00
2023-12-02T07:47:50.448Z,93510.00
2023-12-02T07:48:50.469Z,93512.00
2023-12-02T07:49:50.481Z,93510.00
2023-12-02T07:50:50.310Z,93509.00
2023-12-02T07:51:50.362Z,93506.00
2023-12-02T07:52:50.246Z,93508.00
2023-12-02T07:53:50.338Z,93506.00
2023-12-02T07:54:50.258Z,93507.00
2023-12-02T07:55:50.377Z,93506.00
2023-12-02T07:56:50.213Z,93506.00
2023-12-02T07:57:50.282Z,93504.00
2023-12-02T07:58:50.296Z,93506.00
2023-12-02T07:59:50.280Z,93505.00
2023-12-02T08:00:50.327Z,93506.00
2023-12-02T08:01:50.338Z,93511.00
2023-12-02T08:02:50.352Z,93513.00
2023-12-02T08:03:50.302Z,93517.00
2023-12-02T08:05:51.090Z,93519.00
2023-12-02T08:06:50.163Z,93517.00
2023-12-02T08:07:50.024Z,93517.00
2023-12-02T08:08:50.941Z,93520.00
2023-12-02T08:09:50.156Z,93518.00
2023-12-02T08:10:51.006Z,93518.00
2023-12-02T08:11:50.027Z,93516.00
2023-12-02T08:12:50.482Z,93512.00
2023-12-02T08:13:50.514Z,93510.00
2023-12-02T08:14:50.478Z,93507.00
2023-12-02T08:15:50.551Z,93509.00
2023-12-02T08:16:50.206Z,93508.00
2023-12-02T08:17:51.021Z,93509.00
2023-12-02T08:18:50.073Z,93511.00
2023-12-02T08:19:50.142Z,93516.00
2023-12-02T08:20:50.033Z,93515.00
2023-12-02T08:21:50.030Z,93522.00
2023-12-02T08:22:50.023Z,93522.00
2023-12-02T08:23:49.987Z,93521.00
2023-12-02T08:24:50.450Z,93519.00
2023-12-02T08:25:50.051Z,93520.00
2023-12-02T08:26:50.482Z,93520.00
2023-12-02T08:27:49.968Z,93522.00
2023-12-02T08:28:50.075Z,93524.00
2023-12-02T08:29:50.057Z,93527.00
2023-12-02T08:30:49.948Z,93532.00
2023-12-02T08:31:50.543Z,93534.00
2023-12-02T08:32:50.571Z,93534.00
2023-12-02T08:33:50.129Z,93535.00
2023-12-02T08:34:50.106Z,93534.00
2023-12-02T08:35:49.996Z,93533.00
2023-12-02T08:36:50.513Z,93530.00
2023-12-02T08:37:49.943Z,93531.00
2023-12-02T08:38:49.911Z,93532.00
2023-12-02T08:39:49.818Z,93534.00
2023-12-02T08:40:49.872Z,93536.00
2023-12-02T08:41:49.812Z,93542.00
2023-12-02T08:42:49.742Z,93547.00
2023-12-02T08:43:49.686Z,93552.00
2023-12-02T08:44:49.645Z,93555.00
2023-12-02T08:45:49.735Z,93554.00
2023-12-02T08:46:50.672Z,93554.00
2023-12-02T08:47:49.659Z,93559.00
2023-12-02T08:48:49.631Z,93558.00
2023-12-02T08:49:49.619Z,93560.00
2023-12-02T08:50:49.467Z,93562.00
2023-12-02T08:51:50.019Z,93565.00
2023-12-02T08:52:50.066Z,93564.00
2023-12-02T08:53:50.014Z,93565.00
2023-12-02T08:54:49.279Z,93566.00
2023-12-02T08:55:49.386Z,93563.00
2023-12-02T08:56:49.185Z,93561.00
2023-12-02T08:57:49.956Z,93558.00
2023-12-02T08:58:49.174Z,93553.00
2023-12-02T08:59:49.977Z,93549.00
2023-12-02T09:00:50.593Z,93542.00
2023-12-02T09:01:49.012Z,93540.00
2023-12-02T09:02:49.280Z,93542.00
2023-12-02T09:03:49.016Z,93540.00
2023-12-02T09:04:49.560Z,93538.00
2023-12-02T09:05:49.510Z,93535.00
2023-12-02T09:06:48.964Z,93529.00
2023-12-02T09:07:49.704Z,93526.00
2023-12-02T09:08:50.098Z,93523.00
2023-12-02T09:09:50.059Z,93527.00
2023-12-02T09:10:49.080Z,93526.00
2023-12-02T09:11:49.061Z,93528.00
2023-12-02T09:12:49.896Z,93528.00
2023-12-02T09:13:49.059Z,93532.00
2023-12-02T09:14:48.923Z,93537.00
2023-12-02T09:15:48.724Z,93542.00
2023-12-02T09:16:48.847Z,93550.00
2023-12-02T09:17:48.709Z,93558.00
2023-12-02T09:18:48.719Z,93566.00
2023-12-02T09:19:48.691Z,93576.00
2023-12-02T09:20:48.630Z,93583.00
2023-12-02T09:21:48.657Z,93592.00
2023-12-02T09:22:48.631Z,93600.00
2023-12-02T09:23:50.101Z,93607.00
2023-12-02T09:24:48.512Z,93614.00
2023-12-02T09:25:48.544Z,93619.00
2023-12-02T09:26:48.506Z,93622.00
2023-12-02T09:27:48.473Z,93621.00
2023-12-02T09:28:48.507Z,93620.00
2023-12-02T09:29:48.345Z,93616.00
2023-12-02T09:30:48.343Z,93609.00
2023-12-02T09:31:48.305Z,93606.00
2023-12-02T09:32:48.303Z,93605.00
2023-12-02T09:33:48.300Z,93605.00
2023-12-02T09:34:48.285Z,93608.00
2023-12-02T09:35:48.260Z,93615.00
2023-12-02T09:36:48.227Z,93622.00
2023-12-02T09:37:48.162Z,93627.00
2023-12-02T09:38:48.257Z,93626.00
2023-12-02T09:39:49.023Z,93627.00
2023-12-02T09:40:48.167Z,93625.00
2023-12-02T09:41:49.066Z,93619.00
2023-12-02T09:42:48.093Z,93618.00
2023-12-02T09:43:48.151Z,93614.00
2023-12-02T09:44:48.067Z,93616.00
2023-12-02T09:45:48.007Z,93618.00
2023-12-02T09:46:48.019Z,93620.00
2023-12-02T09:47:47.852Z,93621.00
2023-12-02T09:48:47.959Z,93622.00
2023-12-02T09:49:47.912Z,93620.00
2023-12-02T09:50:47.961Z,93616.00
2023-12-02T09:51:47.866Z,93616.00
2023-12-02T09:52:48.552Z,93615.00
2023-12-02T09:53:48.530Z,93615.00
2023-12-02T09:54:47.776Z,93615.00
2023-12-02T09:55:47.729Z,93616.00
2023-12-02T09:56:47.770Z,93615.00
2023-12-02T09:57:47.606Z,93617.00
2023-12-02T09:58:47.617Z,93613.00
2023-12-02T09:59:47.599Z,93615.00
2023-12-02T10:00:47.616Z,93612.00
2023-12-02T10:01:47.625Z,93615.00
2023-12-02T10:02:48.164Z,93614.00
2023-12-02T10:03:47.487Z,93619.00
2023-12-02T10:04:47.471Z,93620.00
2023-12-02T10:05:47.362Z,93626.00
2023-12-02T10:06:47.439Z,93627.00
2023-12-02T10:07:47.367Z,93629.00
2023-12-02T10:08:47.360Z,93630.00
2023-12-02T10:09:48.127Z,93629.00
2023-12-02T10:10:48.033Z,93632.00
2023-12-02T10:11:47.182Z,93629.00
2023-12-02T10:12:47.122Z,93630.00
2023-12-02T10:13:47.165Z,93632.00
2023-12-02T10:14:47.053Z,93633.00
2023-12-02T10:15:47.114Z,93632.00
2023-12-02T10:16:47.033Z,93633.00
2023-12-02T10:17:47.556Z,93635.00
2023-12-02T10:18:47.064Z,93634.00
2023-12-02T10:19:48.073Z,93634.00
2023-12-02T10:20:47.060Z,93635.00
2023-12-02T10:21:47.530Z,93638.00
2023-12-02T10:22:47.067Z,93640.00
2023-12-02T10:23:46.964Z,93640.00
2023-12-02T10:24:46.971Z,93644.00
2023-12-02T10:25:47.006Z,93647.00
2023-12-02T10:26:46.862Z,93650.00
2023-12-02T10:27:46.856Z,93651.00
2023-12-02T10:28:46.768Z,93654.00
2023-12-02T10:29:46.743Z,93656.00
2023-12-02T10:30:47.548Z,93659.00
2023-12-02T10:31:48.233Z,93660.00
2023-12-02T10:32:46.659Z,93664.00
2023-12-02T10:33:47.558Z,93665.00
2023-12-02T10:34:47.615Z,93666.00
2023-12-02T10:35:46.640Z,93671.00
2023-12-02T10:36:47.066Z,93673.00
2023-12-02T10:37:46.510Z,93676.00
2023-12-02T10:38:46.508Z,93676.00
2023-12-02T10:39:46.467Z,93677.00
2023-12-02T10:40:47.058Z,93680.00
2023-12-02T10:41:46.315Z,93682.00
2023-12-02T10:42:46.316Z,93686.00
2023-12-02T10:43:46.321Z,93687.00
2023-12-02T10:44:46.289Z,93690.00
2023-12-02T10:45:46.277Z,93694.00
2023-12-02T10:46:47.111Z,93695.00
2023-12-02T10:47:46.167Z,93696.00
2023-12-02T10:48:46.277Z,93699.00
2023-12-02T10:49:47.170Z,93702.00
2023-12-02T10:50:46.189Z,93708.00
2023-12-02T10:51:46.025Z,93708.00
2023-12-02T10:52:46.051Z,93711.00
2023-12-02T10:53:45.991Z,93714.00
2023-12-02T10:54:45.888Z,93717.00
2023-12-02T10:55:46.544Z,93721.00
2023-12-02T10:56:46.544Z,93724.00
2023-12-02T10:57:45.854Z,93727.00
2023-12-02T10:58:45.802Z,93730.00
2023-12-02T10:59:45.743Z,93733.00
2023-12-02T11:00:45.802Z,93736.00
2023-12-02T11:01:45.753Z,93736.00
2023-12-02T11:02:45.691Z,93739.00
2023-12-02T11:03:45.614Z,93737.00
2023-12-02T11:04:45.626Z,93737.00
2023-12-02T11:05:46.643Z,93739.00
2023-12-02T11:06:45.644Z,93740.00
2023-12-02T11:07:45.526Z,93738.00
2023-12-02T11:08:46.205Z,93737.00
2023-12-02T11:09:46.676Z,93741.00
2023-12-02T11:10:45.504Z,93741.00
2023-12-02T11:11:45.465Z,93742.00
2023-12-02T11:12:46.018Z,93747.00
2023-12-02T11:13:45.355Z,93746.00
2023-12-02T11:14:46.060Z,93744.00
2023-12-02T11:15:45.986Z,93743.00
2023-12-02T11:16:45.520Z,93743.00
2023-12-02T11:17:45.604Z,93743.00
2023-12-02T11:18:46.058Z,93744.00
2023-12-02T11:19:45.581Z,93746.00
2023-12-02T11:20:45.588Z,93747.00
2023-12-02T11:21:46.110Z,93750.00
2023-12-02T11:22:46.549Z,93753.00
2023-12-02T11:23:46.536Z,93757.00
2023-12-02T11:24:45.536Z,93757.00
2023-12-02T11:25:45.588Z,93759.00
2023-12-02T11:26:45.461Z,93761.00
2023-12-02T11:27:45.849Z,93764.00
2023-12-02T11:28:45.395Z,93764.00
2023-12-02T11:29:45.419Z,93763.00
2023-12-02T11:30:45.390Z,93764.00
2023-12-02T11:31:46.049Z,93771.00
2023-12-02T11:32:46.025Z,93771.00
2023-12-02T11:33:45.937Z,93775.00
2023-12-02T11:34:45.347Z,93778.00
2023-12-02T11:35:48.271Z,93781.00
2023-12-02T11:36:45.216Z,93782.00
2023-12-02T11:37:45.225Z,93783.00
2023-12-02T11:38:46.075Z,93788.00
2023-12-02T11:39:45.165Z,93788.00
2023-12-02T11:40:45.997Z,93790.00
2023-12-02T11:41:46.062Z,93794.00
2023-12-02T11:42:45.041Z,93798.00
2023-12-02T11:43:45.539Z,93799.00
2023-12-02T11:44:44.977Z,93800.00
2023-12-02T11:45:44.977Z,93802.00
2023-12-02T11:46:44.910Z,93803.00